createdAt,value
2022-12-26T00:00:19.158Z,9.00
2022-12-26T00:03:22.345Z,9.00
2022-12-26T00:06:28.525Z,9.00
2022-12-26T00:09:33.844Z,8.90
2022-12-26T00:12:38.895Z,9.00
2022-12-26T00:15:43.206Z,9.00
2022-12-26T00:18:47.575Z,9.00
2022-12-26T00:21:50.797Z,9.00
2022-12-26T00:24:54.003Z,9.00
2022-12-26T00:27:58.531Z,9.00
2022-12-26T00:31:05.846Z,9.00
2022-12-26T00:34:08.919Z,9.00
2022-12-26T00:37:11.972Z,8.80
2022-12-26T00:40:15.369Z,10.30
2022-12-26T00:43:19.928Z,9.90
2022-12-26T00:46:23.222Z,9.10
2022-12-26T00:49:26.443Z,9.10
2022-12-26T00:52:29.464Z,9.10
2022-12-26T00:55:32.772Z,9.10
2022-12-26T00:58:40.462Z,9.10
2022-12-26T01:01:43.652Z,9.10
2022-12-26T01:04:46.811Z,9.10
2022-12-26T01:08:20.348Z,9.10
2022-12-26T01:11:16.071Z,9.10
2022-12-26T01:14:20.364Z,9.10
2022-12-26T01:17:23.662Z,9.10
2022-12-26T01:20:26.806Z,9.10
2022-12-26T01:23:29.875Z,9.10
2022-12-26T01:26:33.126Z,9.10
2022-12-26T01:29:37.435Z,9.20
2022-12-26T01:32:40.399Z,9.10
2022-12-26T01:35:53.972Z,9.10
2022-12-26T01:38:57.169Z,9.20
2022-12-26T01:42:00.340Z,9.10
2022-12-26T01:45:18.696Z,9.10
2022-12-26T01:48:33.443Z,9.10
2022-12-26T01:51:41.651Z,9.20
2022-12-26T01:54:49.453Z,9.20
2022-12-26T01:57:57.684Z,9.20
2022-12-26T02:01:06.135Z,9.20
2022-12-26T02:04:44.911Z,9.20
2022-12-26T02:07:48.512Z,9.20
2022-12-26T02:10:58.169Z,9.20
2022-12-26T02:14:03.247Z,9.20
2022-12-26T02:17:08.595Z,9.20
2022-12-26T02:20:20.764Z,9.50
2022-12-26T02:24:13.969Z,9.10
2022-12-26T02:27:40.293Z,9.20
2022-12-26T02:30:51.762Z,9.20
2022-12-26T02:34:06.294Z,9.30
2022-12-26T02:37:28.945Z,9.20
2022-12-26T02:40:50.637Z,9.30
2022-12-26T02:44:27.587Z,9.30
2022-12-26T02:47:42.587Z,9.20
2022-12-26T02:51:22.075Z,9.30
2022-12-26T02:54:49.768Z,9.30
2022-12-26T02:58:21.238Z,9.30
2022-12-26T03:01:50.069Z,9.90
2022-12-26T03:05:15.311Z,9.20
2022-12-26T03:08:45.540Z,9.20
2022-12-26T03:12:10.929Z,9.20
2022-12-26T03:15:18.462Z,9.20
2022-12-26T03:18:56.808Z,9.20
2022-12-26T03:21:49.509Z,9.20
2022-12-26T03:25:09.128Z,9.20
2022-12-26T03:28:13.903Z,9.20
2022-12-26T03:31:17.210Z,9.20
2022-12-26T03:34:20.588Z,9.20
2022-12-26T03:37:50.222Z,9.00
2022-12-26T03:41:20.256Z,9.30
2022-12-26T03:44:53.967Z,9.00
2022-12-26T03:48:23.885Z,9.30
2022-12-26T03:51:52.124Z,9.30
2022-12-26T03:55:30.320Z,9.40
2022-12-26T03:58:57.969Z,9.30
2022-12-26T04:02:39.790Z,9.40
2022-12-26T04:06:05.858Z,9.40
2022-12-26T04:09:34.888Z,9.40
2022-12-26T04:13:00.295Z,9.40
2022-12-26T04:16:31.503Z,9.40
2022-12-26T04:20:03.188Z,9.40
2022-12-26T04:23:30.231Z,9.40
2022-12-26T04:26:59.276Z,9.40
2022-12-26T04:30:21.296Z,9.40
2022-12-26T04:33:48.082Z,8.90
2022-12-26T04:37:16.289Z,9.40
2022-12-26T04:40:45.243Z,9.50
2022-12-26T04:44:10.392Z,9.50
2022-12-26T04:47:14.938Z,9.50
2022-12-26T04:50:17.132Z,9.50
2022-12-26T04:53:24.960Z,9.40
2022-12-26T04:56:28.042Z,9.50
2022-12-26T04:59:31.180Z,9.50
2022-12-26T05:02:53.145Z,9.50
2022-12-26T05:06:13.858Z,9.50
2022-12-26T05:09:36.794Z,9.50
2022-12-26T05:12:39.809Z,9.50
2022-12-26T05:15:56.826Z,8.70
2022-12-26T05:19:18.940Z,9.50
2022-12-26T05:22:40.176Z,9.60
2022-12-26T05:26:03.651Z,9.70
2022-12-26T05:29:06.749Z,9.70
2022-12-26T05:32:09.847Z,9.70
2022-12-26T05:35:13.479Z,9.70
2022-12-26T05:38:16.545Z,9.80
2022-12-26T05:41:19.927Z,9.80
2022-12-26T05:44:23.003Z,9.80
2022-12-26T05:47:26.015Z,9.80
2022-12-26T05:50:30.915Z,9.90
2022-12-26T05:53:34.727Z,9.90
2022-12-26T05:56:37.845Z,9.90
2022-12-26T05:59:40.938Z,10.40
2022-12-26T06:02:44.195Z,9.90
2022-12-26T06:05:49.064Z,9.90
2022-12-26T06:08:54.827Z,9.80
2022-12-26T06:11:57.900Z,10.40
2022-12-26T06:15:00.949Z,9.80
2022-12-26T06:18:04.095Z,9.70
2022-12-26T06:21:11.977Z,9.80
2022-12-26T06:24:15.445Z,9.80
2022-12-26T06:27:18.532Z,9.80
2022-12-26T06:30:21.542Z,10.50
2022-12-26T06:33:25.117Z,9.80
2022-12-26T06:36:30.787Z,9.80
2022-12-26T06:39:34.006Z,9.80
2022-12-26T06:42:37.235Z,9.80
2022-12-26T06:45:40.244Z,9.80
2022-12-26T06:48:43.558Z,9.90
2022-12-26T06:51:47.937Z,9.90
2022-12-26T06:54:51.025Z,9.90
2022-12-26T06:57:54.308Z,10.00
2022-12-26T07:00:57.395Z,10.00
2022-12-26T07:04:01.621Z,10.10
2022-12-26T07:07:05.871Z,10.20
2022-12-26T07:10:10.268Z,10.20
2022-12-26T07:13:13.309Z,10.20
2022-12-26T07:16:16.517Z,10.30
2022-12-26T07:19:19.746Z,10.30
2022-12-26T07:22:24.298Z,10.30
2022-12-26T07:25:27.303Z,10.30
2022-12-26T07:28:31.067Z,10.30
2022-12-26T07:31:34.158Z,10.30
2022-12-26T07:34:37.165Z,10.70
2022-12-26T07:37:41.589Z,10.30
2022-12-26T07:40:44.570Z,10.30
2022-12-26T07:43:47.575Z,10.30
2022-12-26T07:46:51.161Z,10.30
2022-12-26T07:49:54.249Z,10.30
2022-12-26T07:53:00.292Z,9.80
2022-12-26T07:56:03.783Z,10.30
2022-12-26T07:59:06.761Z,10.30
2022-12-26T08:02:11.931Z,10.30
2022-12-26T08:05:16.438Z,10.70
2022-12-26T08:08:21.017Z,10.30
2022-12-26T08:11:25.870Z,10.40
2022-12-26T08:14:28.872Z,10.40
2022-12-26T08:17:32.779Z,10.40
2022-12-26T08:20:35.842Z,10.40
2022-12-26T08:23:40.438Z,10.40
2022-12-26T08:26:43.452Z,10.40
2022-12-26T08:29:46.387Z,10.40
2022-12-26T08:32:49.553Z,10.50
2022-12-26T08:35:52.919Z,10.30
2022-12-26T08:38:58.551Z,10.40
2022-12-26T08:42:01.464Z,10.40
2022-12-26T08:45:04.828Z,10.40
2022-12-26T08:48:07.875Z,10.40
2022-12-26T08:51:15.444Z,10.40
2022-12-26T08:54:19.809Z,10.30
2022-12-26T08:57:22.881Z,10.30
2022-12-26T09:00:26.442Z,10.30
2022-12-26T09:03:29.553Z,10.30
2022-12-26T09:06:35.638Z,10.30
2022-12-26T09:09:40.129Z,10.30
2022-12-26T09:12:43.228Z,10.30
2022-12-26T09:15:46.251Z,10.30
2022-12-26T09:18:53.987Z,10.10
2022-12-26T09:22:11.536Z,10.20
2022-12-26T09:25:15.990Z,10.20
2022-12-26T09:28:20.987Z,10.30
2022-12-26T09:31:27.465Z,10.20
2022-12-26T09:34:30.795Z,10.30
2022-12-26T09:37:34.369Z,10.20
2022-12-26T09:40:55.614Z,10.20
2022-12-26T09:44:10.012Z,10.20
2022-12-26T09:47:32.853Z,10.20
2022-12-26T09:50:43.608Z,10.10
2022-12-26T09:53:48.600Z,10.10
2022-12-26T09:57:02.622Z,10.30
2022-12-26T10:00:17.420Z,10.00
2022-12-26T10:03:21.167Z,10.00
2022-12-26T10:06:26.956Z,10.00
2022-12-26T10:09:57.388Z,10.00
2022-12-26T10:13:12.356Z,9.90
2022-12-26T10:16:23.693Z,9.90
2022-12-26T10:19:57.421Z,9.90
2022-12-26T10:23:43.582Z,9.90
2022-12-26T10:26:58.096Z,9.90
2022-12-26T10:30:15.024Z,9.90
2022-12-26T10:33:30.416Z,9.90
2022-12-26T10:36:40.391Z,9.90
2022-12-26T10:39:49.765Z,10.00
2022-12-26T10:42:55.948Z,10.00
2022-12-26T10:46:50.217Z,10.70
2022-12-26T10:49:59.693Z,10.10
2022-12-26T10:53:07.937Z,10.10
2022-12-26T10:56:16.373Z,10.20
2022-12-26T10:59:29.776Z,11.40
2022-12-26T11:02:34.388Z,10.30
2022-12-26T11:06:07.051Z,10.30
2022-12-26T11:09:06.063Z,10.40
2022-12-26T11:12:21.825Z,10.40
2022-12-26T11:15:40.429Z,10.50
2022-12-26T11:18:52.341Z,10.50
2022-12-26T11:21:55.845Z,10.50
2022-12-26T11:25:23.101Z,11.10
2022-12-26T11:28:31.490Z,10.50
2022-12-26T11:31:35.499Z,10.60
2022-12-26T11:34:46.982Z,10.60
2022-12-26T11:37:56.181Z,10.60
2022-12-26T11:41:13.699Z,10.60
2022-12-26T11:44:28.912Z,10.70
2022-12-26T11:47:32.121Z,10.70
2022-12-26T11:50:47.431Z,10.70
2022-12-26T11:53:50.529Z,10.70
2022-12-26T11:57:16.074Z,10.80
2022-12-26T12:00:24.582Z,10.90
2022-12-26T12:03:35.508Z,10.90
2022-12-26T12:07:00.884Z,10.90
2022-12-26T12:10:29.306Z,10.90
2022-12-26T12:14:06.689Z,10.90
2022-12-26T12:17:23.058Z,10.90
2022-12-26T12:20:37.013Z,10.90
2022-12-26T12:24:05.285Z,11.00
2022-12-26T12:27:18.335Z,11.00
2022-12-26T12:30:25.359Z,11.00
2022-12-26T12:33:53.495Z,11.00
2022-12-26T12:37:17.606Z,11.00
2022-12-26T12:40:34.787Z,11.10
2022-12-26T12:43:51.685Z,11.10
2022-12-26T12:47:08.330Z,11.20
2022-12-26T12:50:24.703Z,11.20
2022-12-26T12:53:51.981Z,11.20
2022-12-26T12:57:08.447Z,11.20
2022-12-26T13:00:19.469Z,11.30
2022-12-26T13:03:34.222Z,10.50
2022-12-26T13:06:44.524Z,11.30
2022-12-26T13:09:52.976Z,11.30
2022-12-26T13:13:00.164Z,11.30
2022-12-26T13:16:11.409Z,11.40
2022-12-26T13:19:21.414Z,11.40
2022-12-26T13:22:28.682Z,11.40
2022-12-26T13:25:38.974Z,11.40
2022-12-26T13:28:55.569Z,11.50
2022-12-26T13:32:00.278Z,11.50
2022-12-26T13:35:04.327Z,12.40
2022-12-26T13:38:07.537Z,11.50
2022-12-26T13:41:36.615Z,11.50
2022-12-26T13:44:41.663Z,11.50
2022-12-26T13:47:44.799Z,11.50
2022-12-26T13:50:55.795Z,11.60
2022-12-26T13:54:09.816Z,11.50
2022-12-26T13:57:40.080Z,11.50
2022-12-26T14:00:49.091Z,11.60
2022-12-26T14:04:30.957Z,11.50
2022-12-26T14:07:43.755Z,12.40
2022-12-26T14:10:59.524Z,11.60
2022-12-26T14:14:18.450Z,11.50
2022-12-26T14:17:38.419Z,11.60
2022-12-26T14:20:50.187Z,11.60
2022-12-26T14:24:04.316Z,11.60
2022-12-26T14:27:30.194Z,11.60
2022-12-26T14:30:53.622Z,11.50
2022-12-26T14:34:14.851Z,11.60
2022-12-26T14:37:29.316Z,11.50
2022-12-26T14:40:34.793Z,11.60
2022-12-26T14:43:39.013Z,11.60
2022-12-26T14:47:01.655Z,11.50
2022-12-26T14:50:44.001Z,11.50
2022-12-26T14:54:34.341Z,11.90
2022-12-26T14:57:47.624Z,11.50
2022-12-26T15:00:51.590Z,11.50
2022-12-26T15:04:03.171Z,11.50
2022-12-26T15:08:19.311Z,11.50
2022-12-26T15:12:02.292Z,11.50
2022-12-26T15:15:32.900Z,11.50
2022-12-26T15:19:19.207Z,11.60
2022-12-26T15:23:17.018Z,11.50
2022-12-26T15:27:08.633Z,11.50
2022-12-26T15:30:21.547Z,11.50
2022-12-26T15:33:32.779Z,11.50
2022-12-26T15:36:49.831Z,11.50
2022-12-26T15:40:08.116Z,11.40
2022-12-26T15:43:50.275Z,11.40
2022-12-26T15:47:15.598Z,11.40
2022-12-26T15:50:29.785Z,11.40
2022-12-26T15:53:52.314Z,11.30
2022-12-26T15:57:16.041Z,11.30
2022-12-26T16:00:24.804Z,11.30
2022-12-26T16:03:38.390Z,11.20
2022-12-26T16:07:07.898Z,11.20
2022-12-26T16:10:32.881Z,11.10
2022-12-26T16:13:36.504Z,11.10
2022-12-26T16:16:41.347Z,11.10
2022-12-26T16:19:47.440Z,11.00
2022-12-26T16:22:49.723Z,10.90
2022-12-26T16:25:56.994Z,10.90
2022-12-26T16:29:02.102Z,10.90
2022-12-26T16:32:08.712Z,10.80
2022-12-26T16:35:21.673Z,10.70
2022-12-26T16:38:31.390Z,11.00
2022-12-26T16:41:39.023Z,10.50
2022-12-26T16:44:44.490Z,10.40
2022-12-26T16:47:49.760Z,10.30
2022-12-26T16:50:55.711Z,10.20
2022-12-26T16:54:17.772Z,10.10
2022-12-26T16:57:22.454Z,10.00
2022-12-26T17:00:26.564Z,10.00
2022-12-26T17:03:38.297Z,9.90
2022-12-26T17:06:51.052Z,9.80
2022-12-26T17:09:59.220Z,10.00
2022-12-26T17:13:07.654Z,9.70
2022-12-26T17:16:11.318Z,9.60
2022-12-26T17:19:21.819Z,9.60
2022-12-26T17:22:31.672Z,9.40
2022-12-26T17:25:34.762Z,9.30
2022-12-26T17:28:38.817Z,9.20
2022-12-26T17:31:45.281Z,9.10
2022-12-26T17:34:50.120Z,8.90
2022-12-26T17:37:58.778Z,8.80
2022-12-26T17:41:06.867Z,8.70
2022-12-26T17:44:36.382Z,8.60
2022-12-26T17:47:39.660Z,8.50
2022-12-26T17:50:47.607Z,8.40
2022-12-26T17:53:52.752Z,8.00
2022-12-26T17:56:55.986Z,8.30
2022-12-26T17:59:59.641Z,8.20
2022-12-26T18:03:02.937Z,8.10
2022-12-26T18:06:07.731Z,9.20
2022-12-26T18:09:27.220Z,7.00
2022-12-26T18:12:30.369Z,8.00
2022-12-26T18:15:33.905Z,7.90
2022-12-26T18:18:40.701Z,7.90
2022-12-26T18:21:45.633Z,7.80
2022-12-26T18:24:48.673Z,7.80
2022-12-26T18:27:53.481Z,7.80
2022-12-26T18:30:58.149Z,7.70
2022-12-26T18:34:01.126Z,7.70
2022-12-26T18:37:05.584Z,7.60
2022-12-26T18:40:30.617Z,7.60
2022-12-26T18:43:33.846Z,8.10
2022-12-26T18:46:37.082Z,8.00
2022-12-26T18:49:40.683Z,7.50
2022-12-26T18:52:48.693Z,7.40
2022-12-26T18:55:56.496Z,7.40
2022-12-26T18:58:59.514Z,7.40
2022-12-26T19:02:03.167Z,7.30
2022-12-26T19:05:07.157Z,7.30
2022-12-26T19:08:12.923Z,7.30
2022-12-26T19:11:16.451Z,7.20
2022-12-26T19:14:22.860Z,7.20
2022-12-26T19:17:25.837Z,7.20
2022-12-26T19:20:29.419Z,7.20
2022-12-26T19:23:33.837Z,7.10
2022-12-26T19:26:36.920Z,7.10
2022-12-26T19:29:40.039Z,7.10
2022-12-26T19:32:44.121Z,7.10
2022-12-26T19:35:47.872Z,7.10
2022-12-26T19:38:54.032Z,7.10
2022-12-26T19:41:57.160Z,7.10
2022-12-26T19:45:00.572Z,7.00
2022-12-26T19:48:04.435Z,7.00
2022-12-26T19:51:11.150Z,8.00
2022-12-26T19:54:15.683Z,6.80
2022-12-26T19:57:19.114Z,7.00
2022-12-26T20:00:22.867Z,6.50
2022-12-26T20:03:25.957Z,7.00
2022-12-26T20:06:31.620Z,7.00
2022-12-26T20:09:37.325Z,7.00
2022-12-26T20:12:40.532Z,7.00
2022-12-26T20:15:43.510Z,6.90
2022-12-26T20:18:47.463Z,6.90
2022-12-26T20:21:51.626Z,7.10
2022-12-26T20:24:55.852Z,6.90
2022-12-26T20:27:58.956Z,6.70
2022-12-26T20:31:09.100Z,6.50
2022-12-26T20:34:16.176Z,6.90
2022-12-26T20:37:19.196Z,6.80
2022-12-26T20:40:25.463Z,6.80
2022-12-26T20:43:48.146Z,6.80
2022-12-26T20:46:51.655Z,6.80
2022-12-26T20:49:54.835Z,6.70
2022-12-26T20:52:58.533Z,6.70
2022-12-26T20:56:04.103Z,6.70
2022-12-26T20:59:08.145Z,6.60
2022-12-26T21:02:12.956Z,6.70
2022-12-26T21:05:16.715Z,6.60
2022-12-26T21:08:20.315Z,6.60
2022-12-26T21:11:27.807Z,6.60
2022-12-26T21:14:31.237Z,6.40
2022-12-26T21:17:34.434Z,6.60
2022-12-26T21:20:38.756Z,6.50
2022-12-26T21:23:42.745Z,6.50
2022-12-26T21:26:50.212Z,6.50
2022-12-26T21:29:53.584Z,6.50
2022-12-26T21:32:57.555Z,7.80
2022-12-26T21:36:01.085Z,6.50
2022-12-26T21:39:09.780Z,5.50
2022-12-26T21:42:14.847Z,6.50
2022-12-26T21:45:19.361Z,6.40
2022-12-26T21:48:23.808Z,6.40
2022-12-26T21:51:29.299Z,6.40
2022-12-26T21:54:50.008Z,6.80
2022-12-26T21:57:56.284Z,6.40
2022-12-26T22:00:59.676Z,6.40
2022-12-26T22:04:20.191Z,6.30
2022-12-26T22:07:23.408Z,6.40
2022-12-26T22:10:49.380Z,6.30
2022-12-26T22:13:53.873Z,6.30
2022-12-26T22:16:59.330Z,6.30
2022-12-26T22:20:02.372Z,6.30
2022-12-26T22:23:05.838Z,6.30
2022-12-26T22:26:11.740Z,6.80
2022-12-26T22:29:17.201Z,6.30
2022-12-26T22:32:20.290Z,6.30
2022-12-26T22:35:23.363Z,6.30
2022-12-26T22:38:27.927Z,6.30
2022-12-26T22:41:31.086Z,6.30
2022-12-26T22:44:35.593Z,6.30
2022-12-26T22:47:38.707Z,6.20
2022-12-26T22:50:44.408Z,6.20
2022-12-26T22:53:48.135Z,6.20
2022-12-26T22:56:51.132Z,6.20
2022-12-26T23:00:11.605Z,6.20
2022-12-26T23:03:15.642Z,6.10
2022-12-26T23:06:25.055Z,6.10
2022-12-26T23:09:28.711Z,5.90
2022-12-26T23:12:44.570Z,6.10
2022-12-26T23:16:00.272Z,6.10
2022-12-26T23:19:34.980Z,6.10
2022-12-26T23:22:38.870Z,6.10
2022-12-26T23:25:41.960Z,6.10
2022-12-26T23:29:02.627Z,6.10
2022-12-26T23:32:08.736Z,6.00
2022-12-26T23:35:13.649Z,6.10
2022-12-26T23:38:16.713Z,6.00
2022-12-26T23:41:19.705Z,6.00
2022-12-26T23:44:23.033Z,6.00
2022-12-26T23:47:27.734Z,6.00
2022-12-26T23:50:30.817Z,5.90
2022-12-26T23:53:34.103Z,5.90
2022-12-26T23:56:38.135Z,5.30
2022-12-26T23:59:41.093Z,5.90
